Aérodrome :
LOGIN :

S'inscrire | Disclaimer

   EN    FR    IT 

 










Légende :    VFR   VFR Marginal   IFR   IFR Intensif   IFR Très Intensif
Visi : 
Plafond : 
>= 8 km
>= 3000ft
5 à 8 km
1000 à 3000 ft
1500m à 5 km
500 à 1000 ft
800 à 1500m
200 à 500 ft
< 800m
< 200 ft
Symboles :   Orages  Brouillard  Fortes neiges  Fortes précipitations  Vent > 20 kt
SIGMETs :   Divers  Orages  Givrage  Turbulence  Onde Orograph.  Cendres Volcan.






- Altitude de l'aérodrome : 70 ft
- Code IATA : LMP


LICD - Lampedusa

DERNIER METAR :
  • 282350Z AUTO 20005KT 9999 FEW110/// 21/20 Q1015

METARs EXPIRÉS :
  • 282320Z AUTO 18005KT 9999 NCD 21/20 Q1015
  • 282250Z AUTO 17004KT 9999 FEW100/// 21/20 Q1015
  • 282220Z AUTO 17005KT 9999 FEW130/// 21/19 Q1015
  • 282150Z AUTO 15007KT 9999 NCD 21/19 Q1015
  • 282120Z AUTO 14007KT 9999 NCD 21/19 Q1015
  • 282050Z AUTO 15007KT 9999 NCD 21/19 Q1015
  • 282020Z AUTO 13008KT 9999 NCD 21/19 Q1015
  • 281950Z AUTO 14006KT 9999 FEW130/// 21/19 Q1015
  • 281920Z AUTO 15006KT 9999 NCD 21/19 Q1015

TAF TAF LICD
Valide du 29 à 00h jusqu'au 30 à 00h UTC


282300Z 2900/2924 VRB05KT 9999 SCT035
BECMG 2906/2908 35015KT



MET'MAP, la Météo Aéronautique d'un coup d'oeil ! - Copyright ORBIFLY Décembre 2007 - Disclaimer

ORBIFLY MET'MAP TEAM :

Programmation & Développement : Alexandra Zaïnal
Sur une idée originale de : Baudouin d'Aumeries
Soutien technique & logistique : Manuel Goepfert
Assistance : Marc-Olivier Méhu




SOURCES & CREDITS :

   NOAA